sensor_id;sensor_type;location;lat;lon;timestamp;temperature;humidity
9987;DHT22;5033;46.310;11.214;2023-05-07T00:01:29;16.80;99.90
9987;DHT22;5033;46.310;11.214;2023-05-07T00:03:58;16.80;99.90
9987;DHT22;5033;46.310;11.214;2023-05-07T00:06:25;16.80;99.90
9987;DHT22;5033;46.310;11.214;2023-05-07T00:08:54;16.80;99.90
9987;DHT22;5033;46.310;11.214;2023-05-07T00:11:21;16.70;99.90
9987;DHT22;5033;46.310;11.214;2023-05-07T00:13:48;16.80;99.90
9987;DHT22;5033;46.310;11.214;2023-05-07T00:16:15;16.70;99.90
9987;DHT22;5033;46.310;11.214;2023-05-07T00:18:42;16.70;99.90
9987;DHT22;5033;46.310;11.214;2023-05-07T00:21:10;16.60;99.90
9987;DHT22;5033;46.310;11.214;2023-05-07T00:23:37;16.60;99.90
9987;DHT22;5033;46.310;11.214;2023-05-07T00:26:04;16.60;99.90
9987;DHT22;5033;46.310;11.214;2023-05-07T00:28:31;16.60;99.90
9987;DHT22;5033;46.310;11.214;2023-05-07T00:30:58;16.60;99.90
9987;DHT22;5033;46.310;11.214;2023-05-07T00:33:25;16.50;99.90
9987;DHT22;5033;46.310;11.214;2023-05-07T00:35:53;16.60;99.90
9987;DHT22;5033;46.310;11.214;2023-05-07T00:38:22;16.60;99.90
9987;DHT22;5033;46.310;11.214;2023-05-07T00:40:49;16.50;99.90
9987;DHT22;5033;46.310;11.214;2023-05-07T00:43:17;16.50;99.90
9987;DHT22;5033;46.310;11.214;2023-05-07T00:45:43;16.50;99.90
9987;DHT22;5033;46.310;11.214;2023-05-07T00:48:11;16.50;99.90
9987;DHT22;5033;46.310;11.214;2023-05-07T00:50:38;16.50;99.90
9987;DHT22;5033;46.310;11.214;2023-05-07T00:53:06;16.60;99.90
9987;DHT22;5033;46.310;11.214;2023-05-07T00:55:35;16.50;99.90
9987;DHT22;5033;46.310;11.214;2023-05-07T00:58:03;16.50;99.90
9987;DHT22;5033;46.310;11.214;2023-05-07T01:00:30;16.50;99.90
9987;DHT22;5033;46.310;11.214;2023-05-07T01:02:57;16.50;99.90
9987;DHT22;5033;46.310;11.214;2023-05-07T01:05:25;16.50;99.90
9987;DHT22;5033;46.310;11.214;2023-05-07T01:07:53;16.50;99.90
9987;DHT22;5033;46.310;11.214;2023-05-07T01:10:21;16.40;99.90
9987;DHT22;5033;46.310;11.214;2023-05-07T01:12:50;16.40;99.90
9987;DHT22;5033;46.310;11.214;2023-05-07T01:15:18;16.40;99.90
9987;DHT22;5033;46.310;11.214;2023-05-07T01:17:45;16.40;99.90
9987;DHT22;5033;46.310;11.214;2023-05-07T01:20:12;16.30;99.90
9987;DHT22;5033;46.310;11.214;2023-05-07T01:22:43;16.30;99.90
9987;DHT22;5033;46.310;11.214;2023-05-07T01:25:10;16.30;99.90
9987;DHT22;5033;46.310;11.214;2023-05-07T01:27:37;16.30;99.90
9987;DHT22;5033;46.310;11.214;2023-05-07T01:30:04;16.30;99.90
9987;DHT22;5033;46.310;11.214;2023-05-07T01:32:35;16.30;99.90
9987;DHT22;5033;46.310;11.214;2023-05-07T01:35:04;16.30;99.90
9987;DHT22;5033;46.310;11.214;2023-05-07T01:37:32;16.30;99.90
9987;DHT22;5033;46.310;11.214;2023-05-07T01:40:01;16.30;99.90
9987;DHT22;5033;46.310;11.214;2023-05-07T01:42:29;16.30;99.90
9987;DHT22;5033;46.310;11.214;2023-05-07T01:44:56;16.30;99.90
9987;DHT22;5033;46.310;11.214;2023-05-07T01:47:23;16.30;99.90
9987;DHT22;5033;46.310;11.214;2023-05-07T01:49:50;16.20;99.90
9987;DHT22;5033;46.310;11.214;2023-05-07T01:52:17;16.30;99.90
9987;DHT22;5033;46.310;11.214;2023-05-07T01:54:44;16.20;99.90
9987;DHT22;5033;46.310;11.214;2023-05-07T01:57:12;16.20;99.90
9987;DHT22;5033;46.310;11.214;2023-05-07T01:59:39;16.20;99.90
9987;DHT22;5033;46.310;11.214;2023-05-07T02:02:06;16.10;99.90
9987;DHT22;5033;46.310;11.214;2023-05-07T02:04:33;16.10;99.90
9987;DHT22;5033;46.310;11.214;2023-05-07T02:07:00;16.10;99.90
9987;DHT22;5033;46.310;11.214;2023-05-07T02:09:27;16.10;99.90
9987;DHT22;5033;46.310;11.214;2023-05-07T02:11:54;16.10;99.90
9987;DHT22;5033;46.310;11.214;2023-05-07T02:14:23;16.00;99.90
9987;DHT22;5033;46.310;11.214;2023-05-07T02:16:51;16.00;99.90
9987;DHT22;5033;46.310;11.214;2023-05-07T02:19:18;16.00;99.90
9987;DHT22;5033;46.310;11.214;2023-05-07T02:21:46;15.90;99.90
9987;DHT22;5033;46.310;11.214;2023-05-07T02:24:13;15.90;99.90
9987;DHT22;5033;46.310;11.214;2023-05-07T02:26:41;15.90;99.90
9987;DHT22;5033;46.310;11.214;2023-05-07T02:29:08;15.90;99.90
9987;DHT22;5033;46.310;11.214;2023-05-07T02:31:36;15.80;99.90
9987;DHT22;5033;46.310;11.214;2023-05-07T02:34:03;15.70;99.90
9987;DHT22;5033;46.310;11.214;2023-05-07T02:36:30;15.70;99.90
9987;DHT22;5033;46.310;11.214;2023-05-07T02:38:57;15.70;99.90
9987;DHT22;5033;46.310;11.214;2023-05-07T02:41:24;15.70;99.90
9987;DHT22;5033;46.310;11.214;2023-05-07T02:43:51;15.60;99.90
9987;DHT22;5033;46.310;11.214;2023-05-07T02:46:17;15.60;99.90
9987;DHT22;5033;46.310;11.214;2023-05-07T02:48:46;15.60;99.90
9987;DHT22;5033;46.310;11.214;2023-05-07T02:51:13;15.60;99.90
9987;DHT22;5033;46.310;11.214;2023-05-07T02:53:40;15.60;99.90
9987;DHT22;5033;46.310;11.214;2023-05-07T02:56:07;15.60;99.90
9987;DHT22;5033;46.310;11.214;2023-05-07T02:58:34;15.60;99.90
9987;DHT22;5033;46.310;11.214;2023-05-07T03:01:01;15.50;99.90
9987;DHT22;5033;46.310;11.214;2023-05-07T03:03:28;15.50;99.90
9987;DHT22;5033;46.310;11.214;2023-05-07T03:05:56;15.40;99.90
9987;DHT22;5033;46.310;11.214;2023-05-07T03:08:23;15.40;99.90
9987;DHT22;5033;46.310;11.214;2023-05-07T03:10:50;15.40;99.90
9987;DHT22;5033;46.310;11.214;2023-05-07T03:13:17;15.30;99.90
9987;DHT22;5033;46.310;11.214;2023-05-07T03:15:44;15.30;99.90
9987;DHT22;5033;46.310;11.214;2023-05-07T03:18:11;15.30;99.90
9987;DHT22;5033;46.310;11.214;2023-05-07T03:20:38;15.30;99.90
9987;DHT22;5033;46.310;11.214;2023-05-07T03:23:06;15.30;99.90
9987;DHT22;5033;46.310;11.214;2023-05-07T03:25:33;15.30;99.90
9987;DHT22;5033;46.310;11.214;2023-05-07T03:28:00;15.30;99.90
9987;DHT22;5033;46.310;11.214;2023-05-07T03:30:27;15.30;99.90
9987;DHT22;5033;46.310;11.214;2023-05-07T03:32:54;15.30;99.90
9987;DHT22;5033;46.310;11.214;2023-05-07T03:35:21;15.30;99.90
9987;DHT22;5033;46.310;11.214;2023-05-07T03:37:48;15.20;99.90
9987;DHT22;5033;46.310;11.214;2023-05-07T03:40:16;15.20;99.90
9987;DHT22;5033;46.310;11.214;2023-05-07T03:42:43;15.20;99.90
9987;DHT22;5033;46.310;11.214;2023-05-07T03:45:10;15.10;99.90
9987;DHT22;5033;46.310;11.214;2023-05-07T03:47:37;15.10;99.90
9987;DHT22;5033;46.310;11.214;2023-05-07T03:50:05;15.10;99.90
9987;DHT22;5033;46.310;11.214;2023-05-07T03:52:32;15.10;99.90
9987;DHT22;5033;46.310;11.214;2023-05-07T03:54:58;15.10;99.90
9987;DHT22;5033;46.310;11.214;2023-05-07T03:57:27;15.10;99.90
9987;DHT22;5033;46.310;11.214;2023-05-07T03:59:54;15.00;99.90
9987;DHT22;5033;46.310;11.214;2023-05-07T04:02:21;15.00;99.90
9987;DHT22;5033;46.310;11.214;2023-05-07T04:04:48;15.00;99.90
9987;DHT22;5033;46.310;11.214;2023-05-07T04:07:15;15.00;99.90
9987;DHT22;5033;46.310;11.214;2023-05-07T04:09:42;15.00;99.90
9987;DHT22;5033;46.310;11.214;2023-05-07T04:12:09;15.00;99.90
9987;DHT22;5033;46.310;11.214;2023-05-07T04:14:37;15.00;99.90
9987;DHT22;5033;46.310;11.214;2023-05-07T04:17:04;15.10;99.90
9987;DHT22;5033;46.310;11.214;2023-05-07T04:19:33;15.10;99.90
9987;DHT22;5033;46.310;11.214;2023-05-07T04:22:00;15.20;99.90
9987;DHT22;5033;46.310;11.214;2023-05-07T04:24:27;15.20;99.90
9987;DHT22;5033;46.310;11.214;2023-05-07T04:26:54;15.30;99.90
9987;DHT22;5033;46.310;11.214;2023-05-07T04:29:21;15.30;99.90
9987;DHT22;5033;46.310;11.214;2023-05-07T04:31:50;15.40;99.90
9987;DHT22;5033;46.310;11.214;2023-05-07T04:34:16;15.40;99.90
9987;DHT22;5033;46.310;11.214;2023-05-07T04:36:43;15.40;99.90
9987;DHT22;5033;46.310;11.214;2023-05-07T04:39:11;15.40;99.90
9987;DHT22;5033;46.310;11.214;2023-05-07T04:41:38;15.50;99.90
9987;DHT22;5033;46.310;11.214;2023-05-07T04:44:05;15.50;99.90
9987;DHT22;5033;46.310;11.214;2023-05-07T04:46:32;15.50;99.90
9987;DHT22;5033;46.310;11.214;2023-05-07T04:49:00;15.40;99.90
9987;DHT22;5033;46.310;11.214;2023-05-07T04:51:28;15.40;99.90
9987;DHT22;5033;46.310;11.214;2023-05-07T04:53:55;15.40;99.90
9987;DHT22;5033;46.310;11.214;2023-05-07T04:56:22;15.40;99.90
9987;DHT22;5033;46.310;11.214;2023-05-07T04:58:49;15.50;99.90
9987;DHT22;5033;46.310;11.214;2023-05-07T05:01:16;15.50;99.90
9987;DHT22;5033;46.310;11.214;2023-05-07T05:03:43;15.50;99.90
9987;DHT22;5033;46.310;11.214;2023-05-07T05:06:11;15.60;99.90
9987;DHT22;5033;46.310;11.214;2023-05-07T05:08:38;15.70;99.90
9987;DHT22;5033;46.310;11.214;2023-05-07T05:11:05;15.60;99.90
9987;DHT22;5033;46.310;11.214;2023-05-07T05:13:33;15.60;99.90
9987;DHT22;5033;46.310;11.214;2023-05-07T05:16:00;15.50;99.90
9987;DHT22;5033;46.310;11.214;2023-05-07T05:18:26;15.50;99.90
9987;DHT22;5033;46.310;11.214;2023-05-07T05:20:53;15.40;99.90
9987;DHT22;5033;46.310;11.214;2023-05-07T05:23:22;15.30;99.90
9987;DHT22;5033;46.310;11.214;2023-05-07T05:25:49;15.30;99.90
9987;DHT22;5033;46.310;11.214;2023-05-07T05:28:15;15.40;99.90
9987;DHT22;5033;46.310;11.214;2023-05-07T05:30:42;15.60;99.90
9987;DHT22;5033;46.310;11.214;2023-05-07T05:33:09;15.90;99.90
9987;DHT22;5033;46.310;11.214;2023-05-07T05:35:36;16.20;99.90
9987;DHT22;5033;46.310;11.214;2023-05-07T05:38:03;16.50;99.90
9987;DHT22;5033;46.310;11.214;2023-05-07T05:40:31;16.80;99.90
9987;DHT22;5033;46.310;11.214;2023-05-07T05:42:58;17.10;99.90
9987;DHT22;5033;46.310;11.214;2023-05-07T05:45:25;17.40;99.90
9987;DHT22;5033;46.310;11.214;2023-05-07T05:47:52;17.70;99.90
9987;DHT22;5033;46.310;11.214;2023-05-07T05:50:19;17.90;99.90
9987;DHT22;5033;46.310;11.214;2023-05-07T05:52:46;18.10;99.90
9987;DHT22;5033;46.310;11.214;2023-05-07T05:55:13;18.20;99.90
9987;DHT22;5033;46.310;11.214;2023-05-07T05:57:42;17.90;99.90
9987;DHT22;5033;46.310;11.214;2023-05-07T06:00:10;17.40;99.90
9987;DHT22;5033;46.310;11.214;2023-05-07T06:02:37;17.00;99.90
9987;DHT22;5033;46.310;11.214;2023-05-07T06:05:04;16.70;99.90
9987;DHT22;5033;46.310;11.214;2023-05-07T06:07:31;16.50;99.90
9987;DHT22;5033;46.310;11.214;2023-05-07T06:09:58;16.50;99.90
9987;DHT22;5033;46.310;11.214;2023-05-07T06:12:25;16.60;99.90
9987;DHT22;5033;46.310;11.214;2023-05-07T06:14:54;16.90;99.90
9987;DHT22;5033;46.310;11.214;2023-05-07T06:17:21;17.30;99.90
9987;DHT22;5033;46.310;11.214;2023-05-07T06:19:47;17.50;99.90
9987;DHT22;5033;46.310;11.214;2023-05-07T06:22:14;17.50;99.90
9987;DHT22;5033;46.310;11.214;2023-05-07T06:24:41;17.40;99.90
9987;DHT22;5033;46.310;11.214;2023-05-07T06:27:08;17.50;99.90
9987;DHT22;5033;46.310;11.214;2023-05-07T06:29:35;17.50;99.90
9987;DHT22;5033;46.310;11.214;2023-05-07T06:32:10;17.50;99.90
9987;DHT22;5033;46.310;11.214;2023-05-07T06:34:39;17.50;99.90
9987;DHT22;5033;46.310;11.214;2023-05-07T06:37:07;17.60;99.90
9987;DHT22;5033;46.310;11.214;2023-05-07T06:39:34;17.70;99.90
9987;DHT22;5033;46.310;11.214;2023-05-07T06:42:01;18.00;99.90
9987;DHT22;5033;46.310;11.214;2023-05-07T06:44:28;18.50;99.90
9987;DHT22;5033;46.310;11.214;2023-05-07T06:46:55;19.00;99.90
9987;DHT22;5033;46.310;11.214;2023-05-07T06:49:23;19.10;99.90
9987;DHT22;5033;46.310;11.214;2023-05-07T06:51:50;19.10;99.90
9987;DHT22;5033;46.310;11.214;2023-05-07T06:54:17;19.30;99.90
9987;DHT22;5033;46.310;11.214;2023-05-07T06:56:44;19.40;99.90
9987;DHT22;5033;46.310;11.214;2023-05-07T06:59:11;19.40;99.90
9987;DHT22;5033;46.310;11.214;2023-05-07T07:01:38;19.50;99.90
9987;DHT22;5033;46.310;11.214;2023-05-07T07:04:05;19.80;99.90
9987;DHT22;5033;46.310;11.214;2023-05-07T07:06:33;19.90;99.90
9987;DHT22;5033;46.310;11.214;2023-05-07T07:09:00;19.80;99.90
9987;DHT22;5033;46.310;11.214;2023-05-07T07:11:27;19.60;99.90
9987;DHT22;5033;46.310;11.214;2023-05-07T07:13:54;19.60;99.90
9987;DHT22;5033;46.310;11.214;2023-05-07T07:16:21;19.50;99.90
9987;DHT22;5033;46.310;11.214;2023-05-07T07:18:48;19.40;99.90
9987;DHT22;5033;46.310;11.214;2023-05-07T07:21:15;19.40;99.90
9987;DHT22;5033;46.310;11.214;2023-05-07T07:23:43;19.60;99.90
9987;DHT22;5033;46.310;11.214;2023-05-07T07:26:10;19.70;99.90
9987;DHT22;5033;46.310;11.214;2023-05-07T07:28:42;19.70;99.90
9987;DHT22;5033;46.310;11.214;2023-05-07T07:31:09;19.80;99.90
9987;DHT22;5033;46.310;11.214;2023-05-07T07:33:36;19.70;99.90
9987;DHT22;5033;46.310;11.214;2023-05-07T07:36:04;19.70;99.90
9987;DHT22;5033;46.310;11.214;2023-05-07T07:38:31;20.00;99.90
9987;DHT22;5033;46.310;11.214;2023-05-07T07:41:00;20.20;99.90
9987;DHT22;5033;46.310;11.214;2023-05-07T07:43:26;20.40;99.90
9987;DHT22;5033;46.310;11.214;2023-05-07T07:45:54;20.40;99.90
9987;DHT22;5033;46.310;11.214;2023-05-07T07:48:21;20.50;99.90
9987;DHT22;5033;46.310;11.214;2023-05-07T07:50:49;20.90;99.90
9987;DHT22;5033;46.310;11.214;2023-05-07T07:53:16;20.90;99.90
9987;DHT22;5033;46.310;11.214;2023-05-07T07:55:44;21.00;99.90
9987;DHT22;5033;46.310;11.214;2023-05-07T07:58:12;21.30;99.90
9987;DHT22;5033;46.310;11.214;2023-05-07T08:00:39;21.40;99.90
9987;DHT22;5033;46.310;11.214;2023-05-07T08:03:09;21.30;99.90
9987;DHT22;5033;46.310;11.214;2023-05-07T08:05:36;21.30;99.90
9987;DHT22;5033;46.310;11.214;2023-05-07T08:08:04;21.00;99.90
9987;DHT22;5033;46.310;11.214;2023-05-07T08:10:31;21.00;99.90
9987;DHT22;5033;46.310;11.214;2023-05-07T08:13:00;21.00;99.90
9987;DHT22;5033;46.310;11.214;2023-05-07T08:15:30;20.80;99.90
9987;DHT22;5033;46.310;11.214;2023-05-07T08:17:58;20.90;99.90
9987;DHT22;5033;46.310;11.214;2023-05-07T08:20:25;20.80;99.90
9987;DHT22;5033;46.310;11.214;2023-05-07T08:22:52;20.60;99.90
9987;DHT22;5033;46.310;11.214;2023-05-07T08:25:19;20.70;99.90
9987;DHT22;5033;46.310;11.214;2023-05-07T08:27:46;20.60;99.90
9987;DHT22;5033;46.310;11.214;2023-05-07T08:30:14;20.60;99.90
9987;DHT22;5033;46.310;11.214;2023-05-07T08:32:47;20.90;99.90
9987;DHT22;5033;46.310;11.214;2023-05-07T08:35:14;21.00;99.90
9987;DHT22;5033;46.310;11.214;2023-05-07T08:37:41;21.10;99.90
9987;DHT22;5033;46.310;11.214;2023-05-07T08:40:08;21.30;99.90
9987;DHT22;5033;46.310;11.214;2023-05-07T08:42:36;21.40;99.90
9987;DHT22;5033;46.310;11.214;2023-05-07T08:45:04;21.70;99.90
9987;DHT22;5033;46.310;11.214;2023-05-07T08:47:40;22.00;99.90
9987;DHT22;5033;46.310;11.214;2023-05-07T08:50:09;22.20;99.90
9987;DHT22;5033;46.310;11.214;2023-05-07T08:52:36;22.40;99.90
9987;DHT22;5033;46.310;11.214;2023-05-07T08:55:04;22.50;99.90
9987;DHT22;5033;46.310;11.214;2023-05-07T08:57:31;22.30;99.90
9987;DHT22;5033;46.310;11.214;2023-05-07T08:59:58;22.10;99.90
9987;DHT22;5033;46.310;11.214;2023-05-07T09:02:25;21.90;99.90
9987;DHT22;5033;46.310;11.214;2023-05-07T09:04:52;21.80;99.90
9987;DHT22;5033;46.310;11.214;2023-05-07T09:07:21;21.80;99.90
9987;DHT22;5033;46.310;11.214;2023-05-07T09:09:49;21.80;99.90
9987;DHT22;5033;46.310;11.214;2023-05-07T09:12:17;22.00;99.90
9987;DHT22;5033;46.310;11.214;2023-05-07T09:14:44;22.10;99.90
9987;DHT22;5033;46.310;11.214;2023-05-07T09:17:12;22.10;99.90
9987;DHT22;5033;46.310;11.214;2023-05-07T09:19:39;22.10;99.90
9987;DHT22;5033;46.310;11.214;2023-05-07T09:22:06;22.00;99.90
9987;DHT22;5033;46.310;11.214;2023-05-07T09:24:35;22.10;99.90
9987;DHT22;5033;46.310;11.214;2023-05-07T09:27:03;22.30;99.90
9987;DHT22;5033;46.310;11.214;2023-05-07T09:29:31;22.40;99.90
9987;DHT22;5033;46.310;11.214;2023-05-07T09:32:01;22.70;99.90
9987;DHT22;5033;46.310;11.214;2023-05-07T09:34:28;22.90;99.90
9987;DHT22;5033;46.310;11.214;2023-05-07T09:36:56;22.90;99.90
9987;DHT22;5033;46.310;11.214;2023-05-07T09:39:23;22.80;99.90
9987;DHT22;5033;46.310;11.214;2023-05-07T09:41:51;23.00;99.90
9987;DHT22;5033;46.310;11.214;2023-05-07T09:44:20;23.10;99.90
9987;DHT22;5033;46.310;11.214;2023-05-07T09:46:54;23.10;99.90
9987;DHT22;5033;46.310;11.214;2023-05-07T09:49:23;23.20;99.90
9987;DHT22;5033;46.310;11.214;2023-05-07T09:51:51;23.40;99.90
9987;DHT22;5033;46.310;11.214;2023-05-07T09:54:18;23.60;99.90
9987;DHT22;5033;46.310;11.214;2023-05-07T09:56:45;23.80;99.90
9987;DHT22;5033;46.310;11.214;2023-05-07T09:59:16;24.00;99.90
9987;DHT22;5033;46.310;11.214;2023-05-07T10:01:44;24.00;99.90
9987;DHT22;5033;46.310;11.214;2023-05-07T10:04:12;24.10;99.90
9987;DHT22;5033;46.310;11.214;2023-05-07T10:06:39;24.20;99.90
9987;DHT22;5033;46.310;11.214;2023-05-07T10:09:07;24.10;99.90
9987;DHT22;5033;46.310;11.214;2023-05-07T10:11:36;24.00;99.90
9987;DHT22;5033;46.310;11.214;2023-05-07T10:14:04;24.10;99.90
9987;DHT22;5033;46.310;11.214;2023-05-07T10:16:35;23.90;99.90
9987;DHT22;5033;46.310;11.214;2023-05-07T10:19:03;23.80;99.90
9987;DHT22;5033;46.310;11.214;2023-05-07T10:21:30;23.80;99.90
9987;DHT22;5033;46.310;11.214;2023-05-07T10:24:03;23.90;99.90
9987;DHT22;5033;46.310;11.214;2023-05-07T10:26:32;24.00;99.90
9987;DHT22;5033;46.310;11.214;2023-05-07T10:29:03;24.10;99.90
9987;DHT22;5033;46.310;11.214;2023-05-07T10:31:48;24.30;99.90
9987;DHT22;5033;46.310;11.214;2023-05-07T10:34:21;24.50;99.90
9987;DHT22;5033;46.310;11.214;2023-05-07T10:36:50;24.70;99.90
9987;DHT22;5033;46.310;11.214;2023-05-07T10:39:19;24.80;99.90
9987;DHT22;5033;46.310;11.214;2023-05-07T10:41:47;24.80;99.90
9987;DHT22;5033;46.310;11.214;2023-05-07T10:44:25;25.10;99.90
9987;DHT22;5033;46.310;11.214;2023-05-07T10:47:08;25.20;99.90
9987;DHT22;5033;46.310;11.214;2023-05-07T10:49:37;25.10;99.90
9987;DHT22;5033;46.310;11.214;2023-05-07T10:52:24;25.00;99.90
9987;DHT22;5033;46.310;11.214;2023-05-07T10:55:20;25.20;99.90
9987;DHT22;5033;46.310;11.214;2023-05-07T10:57:47;24.80;99.90
9987;DHT22;5033;46.310;11.214;2023-05-07T11:00:42;24.80;99.90
9987;DHT22;5033;46.310;11.214;2023-05-07T11:03:11;25.00;99.90
9987;DHT22;5033;46.310;11.214;2023-05-07T11:05:40;24.80;99.90
9987;DHT22;5033;46.310;11.214;2023-05-07T11:08:08;24.50;99.90
9987;DHT22;5033;46.310;11.214;2023-05-07T11:10:52;24.20;99.90
9987;DHT22;5033;46.310;11.214;2023-05-07T11:13:42;24.10;99.90
9987;DHT22;5033;46.310;11.214;2023-05-07T11:16:20;24.00;99.90
9987;DHT22;5033;46.310;11.214;2023-05-07T11:18:50;23.90;99.90
9987;DHT22;5033;46.310;11.214;2023-05-07T11:21:34;24.00;99.90
9987;DHT22;5033;46.310;11.214;2023-05-07T11:24:02;23.90;99.90
9987;DHT22;5033;46.310;11.214;2023-05-07T11:26:30;23.90;99.90
9987;DHT22;5033;46.310;11.214;2023-05-07T11:28:58;24.00;99.90
9987;DHT22;5033;46.310;11.214;2023-05-07T11:31:27;24.10;99.90
9987;DHT22;5033;46.310;11.214;2023-05-07T11:33:57;23.90;99.90
9987;DHT22;5033;46.310;11.214;2023-05-07T11:36:24;23.90;99.90
9987;DHT22;5033;46.310;11.214;2023-05-07T11:38:52;24.30;99.90
9987;DHT22;5033;46.310;11.214;2023-05-07T11:41:19;24.50;99.90
9987;DHT22;5033;46.310;11.214;2023-05-07T11:43:55;24.70;99.90
9987;DHT22;5033;46.310;11.214;2023-05-07T11:46:22;24.90;99.90
9987;DHT22;5033;46.310;11.214;2023-05-07T11:48:49;25.10;99.90
9987;DHT22;5033;46.310;11.214;2023-05-07T11:51:21;25.20;99.90
9987;DHT22;5033;46.310;11.214;2023-05-07T11:53:49;25.20;99.90
9987;DHT22;5033;46.310;11.214;2023-05-07T11:56:17;25.00;99.90
9987;DHT22;5033;46.310;11.214;2023-05-07T11:58:46;24.90;99.90
9987;DHT22;5033;46.310;11.214;2023-05-07T12:01:13;25.00;99.90
9987;DHT22;5033;46.310;11.214;2023-05-07T12:03:42;25.40;99.90
9987;DHT22;5033;46.310;11.214;2023-05-07T12:06:12;25.70;99.90
9987;DHT22;5033;46.310;11.214;2023-05-07T12:08:41;26.00;99.90
9987;DHT22;5033;46.310;11.214;2023-05-07T12:11:09;26.20;99.90
9987;DHT22;5033;46.310;11.214;2023-05-07T12:13:37;26.40;99.90
9987;DHT22;5033;46.310;11.214;2023-05-07T12:16:06;26.50;99.90
9987;DHT22;5033;46.310;11.214;2023-05-07T12:18:34;26.70;99.90
9987;DHT22;5033;46.310;11.214;2023-05-07T12:21:02;26.70;99.90
9987;DHT22;5033;46.310;11.214;2023-05-07T12:23:30;26.80;99.90
9987;DHT22;5033;46.310;11.214;2023-05-07T12:25:59;27.00;99.90
9987;DHT22;5033;46.310;11.214;2023-05-07T12:28:26;27.10;99.90
9987;DHT22;5033;46.310;11.214;2023-05-07T12:30:54;27.10;99.90
9987;DHT22;5033;46.310;11.214;2023-05-07T12:33:24;26.90;99.90
9987;DHT22;5033;46.310;11.214;2023-05-07T12:35:54;26.60;99.90
9987;DHT22;5033;46.310;11.214;2023-05-07T12:38:21;26.30;99.90
9987;DHT22;5033;46.310;11.214;2023-05-07T12:40:59;26.20;99.90
9987;DHT22;5033;46.310;11.214;2023-05-07T12:43:27;26.00;99.90
9987;DHT22;5033;46.310;11.214;2023-05-07T12:45:55;25.80;99.90
9987;DHT22;5033;46.310;11.214;2023-05-07T12:48:23;25.90;99.90
9987;DHT22;5033;46.310;11.214;2023-05-07T12:50:53;26.00;99.90
9987;DHT22;5033;46.310;11.214;2023-05-07T12:53:22;26.00;99.90
9987;DHT22;5033;46.310;11.214;2023-05-07T12:55:50;26.10;99.90
9987;DHT22;5033;46.310;11.214;2023-05-07T12:58:20;26.10;99.90
9987;DHT22;5033;46.310;11.214;2023-05-07T13:00:50;26.40;99.90
9987;DHT22;5033;46.310;11.214;2023-05-07T13:03:21;26.50;99.90
9987;DHT22;5033;46.310;11.214;2023-05-07T13:05:49;26.60;99.90
9987;DHT22;5033;46.310;11.214;2023-05-07T13:08:28;26.90;99.90
9987;DHT22;5033;46.310;11.214;2023-05-07T13:10:56;27.00;99.90
9987;DHT22;5033;46.310;11.214;2023-05-07T13:13:24;26.90;99.90
9987;DHT22;5033;46.310;11.214;2023-05-07T13:15:51;26.80;99.90
9987;DHT22;5033;46.310;11.214;2023-05-07T13:18:18;27.00;99.90
9987;DHT22;5033;46.310;11.214;2023-05-07T13:20:45;27.00;99.90
9987;DHT22;5033;46.310;11.214;2023-05-07T13:23:12;27.10;99.90
9987;DHT22;5033;46.310;11.214;2023-05-07T13:25:39;27.20;99.90
9987;DHT22;5033;46.310;11.214;2023-05-07T13:28:06;27.20;99.90
9987;DHT22;5033;46.310;11.214;2023-05-07T13:30:34;27.20;99.90
9987;DHT22;5033;46.310;11.214;2023-05-07T13:33:01;27.20;99.90
9987;DHT22;5033;46.310;11.214;2023-05-07T13:35:28;27.30;99.90
9987;DHT22;5033;46.310;11.214;2023-05-07T13:37:55;27.40;99.90
9987;DHT22;5033;46.310;11.214;2023-05-07T13:40:22;27.30;99.90
9987;DHT22;5033;46.310;11.214;2023-05-07T13:42:49;27.20;99.90
9987;DHT22;5033;46.310;11.214;2023-05-07T13:45:17;27.20;99.90
9987;DHT22;5033;46.310;11.214;2023-05-07T13:47:46;27.20;99.90
9987;DHT22;5033;46.310;11.214;2023-05-07T13:50:15;27.10;99.90
9987;DHT22;5033;46.310;11.214;2023-05-07T13:52:43;27.10;99.90
9987;DHT22;5033;46.310;11.214;2023-05-07T13:55:16;27.10;99.90
9987;DHT22;5033;46.310;11.214;2023-05-07T13:57:43;27.00;99.90
9987;DHT22;5033;46.310;11.214;2023-05-07T14:00:11;26.90;99.90
9987;DHT22;5033;46.310;11.214;2023-05-07T14:02:38;26.60;99.90
9987;DHT22;5033;46.310;11.214;2023-05-07T14:05:07;26.00;99.90
9987;DHT22;5033;46.310;11.214;2023-05-07T14:07:35;25.70;99.90
9987;DHT22;5033;46.310;11.214;2023-05-07T14:10:03;26.00;99.90
9987;DHT22;5033;46.310;11.214;2023-05-07T14:12:30;26.30;99.90
9987;DHT22;5033;46.310;11.214;2023-05-07T14:14:56;26.50;99.90
9987;DHT22;5033;46.310;11.214;2023-05-07T14:17:24;26.30;99.90
9987;DHT22;5033;46.310;11.214;2023-05-07T14:19:52;26.10;99.90
9987;DHT22;5033;46.310;11.214;2023-05-07T14:22:22;25.60;99.90
9987;DHT22;5033;46.310;11.214;2023-05-07T14:24:49;25.30;99.90
9987;DHT22;5033;46.310;11.214;2023-05-07T14:27:16;25.10;99.90
9987;DHT22;5033;46.310;11.214;2023-05-07T14:29:43;25.10;99.90
9987;DHT22;5033;46.310;11.214;2023-05-07T14:32:11;24.80;99.90
9987;DHT22;5033;46.310;11.214;2023-05-07T14:34:38;24.60;99.90
9987;DHT22;5033;46.310;11.214;2023-05-07T14:37:05;24.40;99.90
9987;DHT22;5033;46.310;11.214;2023-05-07T14:39:33;24.30;99.90
9987;DHT22;5033;46.310;11.214;2023-05-07T14:42:00;24.30;99.90
9987;DHT22;5033;46.310;11.214;2023-05-07T14:44:27;24.20;99.90
9987;DHT22;5033;46.310;11.214;2023-05-07T14:46:54;24.10;99.90
9987;DHT22;5033;46.310;11.214;2023-05-07T14:49:21;24.10;99.90
9987;DHT22;5033;46.310;11.214;2023-05-07T14:51:49;24.10;99.90
9987;DHT22;5033;46.310;11.214;2023-05-07T14:54:16;24.20;99.90
9987;DHT22;5033;46.310;11.214;2023-05-07T14:56:44;24.20;99.90
9987;DHT22;5033;46.310;11.214;2023-05-07T14:59:11;24.00;99.90
9987;DHT22;5033;46.310;11.214;2023-05-07T15:01:38;23.80;99.90
9987;DHT22;5033;46.310;11.214;2023-05-07T15:04:10;23.50;99.90
9987;DHT22;5033;46.310;11.214;2023-05-07T15:06:37;23.40;99.90
9987;DHT22;5033;46.310;11.214;2023-05-07T15:09:04;23.30;99.90
9987;DHT22;5033;46.310;11.214;2023-05-07T15:11:31;23.20;99.90
9987;DHT22;5033;46.310;11.214;2023-05-07T15:14:00;23.10;99.90
9987;DHT22;5033;46.310;11.214;2023-05-07T15:16:27;23.10;99.90
9987;DHT22;5033;46.310;11.214;2023-05-07T15:18:54;23.00;99.90
9987;DHT22;5033;46.310;11.214;2023-05-07T15:21:20;23.00;99.90
9987;DHT22;5033;46.310;11.214;2023-05-07T15:23:48;23.00;99.90
9987;DHT22;5033;46.310;11.214;2023-05-07T15:26:15;22.90;99.90
9987;DHT22;5033;46.310;11.214;2023-05-07T15:28:42;22.80;99.90
9987;DHT22;5033;46.310;11.214;2023-05-07T15:31:10;22.80;99.90
9987;DHT22;5033;46.310;11.214;2023-05-07T15:33:37;22.70;99.90
9987;DHT22;5033;46.310;11.214;2023-05-07T15:36:05;22.70;99.90
9987;DHT22;5033;46.310;11.214;2023-05-07T15:38:32;22.60;99.90
9987;DHT22;5033;46.310;11.214;2023-05-07T15:40:59;22.70;99.90
9987;DHT22;5033;46.310;11.214;2023-05-07T15:43:27;22.70;99.90
9987;DHT22;5033;46.310;11.214;2023-05-07T15:45:54;22.70;99.90
9987;DHT22;5033;46.310;11.214;2023-05-07T15:48:22;22.70;99.90
9987;DHT22;5033;46.310;11.214;2023-05-07T15:50:49;22.60;99.90